Time;durP1;ratioP1;P1;durP2;ratioP2;P2;SDS_P1;SDS_P2;PMS_P1;PMS_P2;Temp;Humidity;BMP_temperature;BMP_pressure;BME280_temperature;BME280_humidity;BME280_pressure;Samples;Min_cycle;Max_cycle;Signal;HPM_P1;HPM_P2
2022/03/12 00:02:18;;;;;;;18.83;11.98;;;;;;;9.79;48.70;101196.94;5282189;28;20052;-79
2022/03/12 00:04:49;;;;;;;15.85;12.32;;;;;;;9.74;48.98;101183.16;5280171;28;20025;-78
2022/03/12 00:07:21;;;;;;;18.48;11.80;;;;;;;9.71;49.17;101184.28;5282012;28;20033;-78
2022/03/12 00:09:53;;;;;;;16.02;11.35;;;;;;;9.78;49.17;101201.44;5281189;28;20068;-78
2022/03/12 00:12:25;;;;;;;18.92;12.13;;;;;;;9.80;49.72;101201.28;5279008;28;20064;-78
2022/03/12 00:14:56;;;;;;;16.08;12.77;;;;;;;9.79;50.06;101196.94;5280579;28;20094;-79
2022/03/12 00:17:29;;;;;;;16.70;12.38;;;;;;;9.74;50.12;101199.13;5278004;28;20102;-79
2022/03/12 00:20:00;;;;;;;20.92;12.60;;;;;;;9.76;50.76;101195.34;5279790;28;20535;-78
2022/03/12 00:22:32;;;;;;;15.52;12.13;;;;;;;9.71;51.11;101196.72;5274725;28;20029;-78
2022/03/12 00:25:09;;;;;;;17.83;12.10;;;;;;;9.80;50.72;101210.13;5276033;28;20029;-78
2022/03/12 00:27:41;;;;;;;15.38;11.52;;;;;;;9.80;50.62;101212.78;5281599;28;20063;-78
2022/03/12 00:30:18;;;;;;;16.85;11.35;;;;;;;9.84;51.14;101205.38;5280987;28;20060;-78
2022/03/12 00:32:51;;;;;;;16.63;11.73;;;;;;;9.86;50.20;101219.44;5277024;28;20033;-78
2022/03/12 00:35:22;;;;;;;17.15;11.65;;;;;;;9.89;50.41;101212.97;5263715;28;20053;-79
2022/03/12 00:37:54;;;;;;;16.05;12.15;;;;;;;9.87;51.30;101222.94;5280766;28;20132;-78
2022/03/12 00:40:25;;;;;;;18.02;12.23;;;;;;;9.89;51.03;101221.84;5281735;28;20139;-78
2022/03/12 00:42:56;;;;;;;17.58;11.65;;;;;;;9.88;51.51;101227.28;5278964;28;20025;-79
2022/03/12 00:45:29;;;;;;;17.73;12.18;;;;;;;9.89;52.63;101226.31;5278826;28;20029;-78
2022/03/12 00:48:00;;;;;;;21.13;12.40;;;;;;;9.82;53.54;101223.31;5279789;28;20060;-78
2022/03/12 00:50:31;;;;;;;19.42;12.80;;;;;;;9.86;54.17;101235.41;5261064;28;20127;-78
2022/03/12 00:53:03;;;;;;;15.35;11.80;;;;;;;9.80;56.25;101230.56;5282144;28;20029;-78
2022/03/12 00:55:34;;;;;;;16.55;12.68;;;;;;;9.79;58.16;101239.56;5279720;28;20108;-78
2022/03/12 00:58:05;;;;;;;17.23;12.38;;;;;;;9.70;59.85;101227.00;5278439;28;20029;-78
2022/03/12 01:00:37;;;;;;;16.75;12.07;;;;;;;9.67;62.12;101232.59;5278067;28;20056;-78
2022/03/12 01:03:08;;;;;;;19.92;12.98;;;;;;;9.71;62.34;101242.88;5280719;28;20033;-78
2022/03/12 01:06:01;;;;;;;17.58;12.82;;;;;;;9.72;61.80;101231.22;5279679;28;20410;-78
2022/03/12 01:08:34;;;;;;;18.38;11.93;;;;;;;9.73;64.27;101229.41;5261995;28;20091;-78
2022/03/12 01:11:09;;;;;;;16.08;12.02;;;;;;;9.61;63.52;101223.28;5260556;28;20051;-78
2022/03/12 01:13:40;;;;;;;16.33;11.80;;;;;;;9.68;64.79;101232.47;5281323;28;20102;-78
2022/03/12 01:16:11;;;;;;;16.73;11.98;;;;;;;9.72;65.47;101233.06;5281186;28;20059;-78
2022/03/12 01:18:43;;;;;;;17.83;11.90;;;;;;;9.71;71.74;101236.69;5261459;28;20033;-78
2022/03/12 01:21:17;;;;;;;17.27;12.50;;;;;;;9.61;74.49;101236.63;5279700;28;20052;-78
2022/03/12 01:23:50;;;;;;;17.48;12.10;;;;;;;9.49;80.08;101233.13;5262454;28;20359;-78
2022/03/12 01:26:22;;;;;;;18.95;12.38;;;;;;;9.45;88.26;101247.69;5280875;28;20033;-78
2022/03/12 01:28:53;;;;;;;16.75;12.90;;;;;;;9.43;87.92;101249.59;5279129;28;20029;-79
2022/03/12 01:31:24;;;;;;;21.35;13.48;;;;;;;9.28;96.97;101246.38;5262311;28;20029;-79
2022/03/12 01:33:56;;;;;;;20.15;12.65;;;;;;;9.11;100.00;101249.56;5279861;28;20413;-79
2022/03/12 01:36:27;;;;;;;17.92;12.05;;;;;;;8.96;100.00;101252.47;5260175;28;20503;-79
2022/03/12 01:38:59;;;;;;;17.65;12.95;;;;;;;8.94;100.00;101257.06;5259719;28;20539;-79
2022/03/12 01:41:35;;;;;;;16.45;12.40;;;;;;;8.84;100.00;101258.75;5276411;28;20040;-79
2022/03/12 01:44:07;;;;;;;18.38;12.32;;;;;;;8.62;100.00;101246.28;5272003;28;20377;-79
2022/03/12 01:46:45;;;;;;;16.95;13.48;;;;;;;8.50;100.00;101256.94;5275396;28;20108;-80
2022/03/12 01:49:19;;;;;;;17.60;13.82;;;;;;;8.45;100.00;101267.06;5279699;28;20037;-80
2022/03/12 01:51:54;;;;;;;22.10;14.32;;;;;;;8.40;100.00;101257.72;5260492;28;20055;-80
2022/03/12 01:54:28;;;;;;;24.10;14.30;;;;;;;8.23;100.00;101254.53;5279969;28;20480;-80
2022/03/12 01:57:00;;;;;;;19.20;13.95;;;;;;;8.18;100.00;101250.53;5260942;28;20211;-80
2022/03/12 01:59:32;;;;;;;20.40;13.23;;;;;;;8.21;100.00;101251.16;5263322;28;20507;-80
2022/03/12 02:02:09;;;;;;;21.05;13.30;;;;;;;8.24;100.00;101242.94;5278485;28;20114;-80
2022/03/12 02:04:41;;;;;;;18.33;13.75;;;;;;;8.36;100.00;101253.59;5279663;28;20025;-80
2022/03/12 02:07:14;;;;;;;20.05;13.32;;;;;;;8.30;100.00;101242.47;5258864;28;20070;-80
2022/03/12 02:09:46;;;;;;;17.00;13.23;;;;;;;8.40;100.00;101250.59;5262138;28;20443;-80
2022/03/12 02:12:17;;;;;;;18.55;13.30;;;;;;;8.47;100.00;101246.53;5278768;28;20033;-80
2022/03/12 02:14:48;;;;;;;19.95;13.90;;;;;;;8.48;100.00;101248.19;5281922;28;20108;-80
2022/03/12 02:17:20;;;;;;;17.05;12.70;;;;;;;8.49;100.00;101251.72;5278223;28;20428;-80
2022/03/12 02:19:51;;;;;;;18.50;12.73;;;;;;;8.57;100.00;101251.13;5278785;28;20461;-80
2022/03/12 02:22:22;;;;;;;21.38;13.32;;;;;;;8.59;100.00;101254.50;5262935;28;20512;-79
2022/03/12 02:24:53;;;;;;;21.45;12.57;;;;;;;8.63;100.00;101253.31;5282267;28;20033;-80
2022/03/12 02:27:25;;;;;;;16.15;12.63;;;;;;;8.68;100.00;101267.94;5279617;28;20105;-80
2022/03/12 02:29:58;;;;;;;19.70;13.45;;;;;;;8.67;100.00;101247.63;5281062;28;20067;-79
2022/03/12 02:32:30;;;;;;;18.88;13.20;;;;;;;8.77;100.00;101255.72;5280857;28;20112;-80
2022/03/12 02:35:02;;;;;;;19.67;13.25;;;;;;;8.82;100.00;101255.38;5277749;28;20032;-80
2022/03/12 02:37:34;;;;;;;15.90;12.50;;;;;;;8.85;100.00;101266.63;5278370;28;20057;-79
2022/03/12 02:40:09;;;;;;;19.25;12.35;;;;;;;8.86;100.00;101267.47;5276407;28;20029;-79
2022/03/12 02:42:40;;;;;;;16.33;11.93;;;;;;;8.88;100.00;101266.34;5274299;28;20033;-79
2022/03/12 02:45:11;;;;;;;15.35;11.68;;;;;;;8.91;100.00;101281.25;5278814;28;20434;-79
2022/03/12 02:47:43;;;;;;;16.95;12.63;;;;;;;8.90;100.00;101271.56;5273046;28;20063;-79
2022/03/12 02:50:15;;;;;;;14.18;12.23;;;;;;;8.90;100.00;101287.53;5273173;28;20075;-79
2022/03/12 02:52:46;;;;;;;17.40;12.82;;;;;;;8.84;100.00;101272.91;5273611;28;20021;-79
2022/03/12 02:55:23;;;;;;;18.02;12.50;;;;;;;8.88;100.00;101277.00;5254372;28;20029;-78
2022/03/12 02:57:54;;;;;;;;;;;;;;;8.91;100.00;101288.41;5279965;28;20154;-78
2022/03/12 03:00:26;;;;;;;19.97;11.93;;;;;;;8.85;100.00;101287.91;5275849;28;20401;-78
2022/03/12 03:02:57;;;;;;;16.73;12.77;;;;;;;8.81;100.00;101291.75;5276135;28;20410;-79
2022/03/12 03:08:09;;;;;;;18.05;12.45;;;;;;;8.65;100.00;101289.44;5275108;28;20080;-78
2022/03/12 03:10:43;;;;;;;16.92;12.95;;;;;;;8.55;100.00;101284.97;5276953;28;20029;-78
2022/03/12 03:13:17;;;;;;;15.52;12.35;;;;;;;8.44;100.00;101285.78;5276205;28;20037;-78
2022/03/12 03:15:53;;;;;;;14.40;11.63;;;;;;;8.27;100.00;101295.00;5277829;28;20091;-78
2022/03/12 03:18:28;;;;;;;18.87;12.80;;;;;;;8.19;100.00;101303.56;5264730;28;20431;-78
2022/03/12 03:21:01;;;;;;;17.55;12.60;;;;;;;8.07;100.00;101299.19;5281825;28;20033;-79
2022/03/12 03:23:32;;;;;;;17.60;12.20;;;;;;;7.95;100.00;101299.13;5284107;28;20538;-78
2022/03/12 03:26:05;;;;;;;18.00;13.00;;;;;;;7.83;100.00;101294.72;5282617;28;20135;-78
2022/03/12 03:28:36;;;;;;;17.48;12.05;;;;;;;7.83;100.00;101296.53;5283495;28;20377;-78
2022/03/12 03:31:08;;;;;;;17.30;12.32;;;;;;;7.75;100.00;101299.78;5281800;28;20025;-78
2022/03/12 03:33:39;;;;;;;17.08;11.57;;;;;;;7.74;100.00;101300.72;5282775;28;20025;-77
2022/03/12 03:36:10;;;;;;;17.73;12.07;;;;;;;7.72;100.00;101300.81;5281518;28;20077;-78
2022/03/12 03:38:41;;;;;;;16.77;10.23;;;;;;;7.78;100.00;101312.81;5277778;28;20021;-78
2022/03/12 03:41:14;;;;;;;13.68;10.80;;;;;;;7.88;100.00;101308.50;5283194;28;20029;-77
2022/03/12 03:43:48;;;;;;;13.02;10.35;;;;;;;7.81;100.00;101314.41;5280541;28;20037;-77
2022/03/12 03:46:22;;;;;;;14.48;10.63;;;;;;;7.75;100.00;101319.19;5279090;28;20108;-79
2022/03/12 03:48:53;;;;;;;13.75;10.25;;;;;;;7.67;100.00;101313.59;5281111;28;20036;-79
2022/03/12 03:51:25;;;;;;;13.07;11.00;;;;;;;7.54;100.00;101313.66;5263649;28;20071;-78
2022/03/12 03:53:56;;;;;;;16.58;11.13;;;;;;;7.55;100.00;101314.50;5282951;28;20025;-79
2022/03/12 03:56:27;;;;;;;14.05;10.20;;;;;;;7.40;100.00;101324.41;5280584;28;20506;-79
2022/03/12 03:58:58;;;;;;;17.70;10.63;;;;;;;7.45;100.00;101326.72;5280309;28;20060;-79
2022/03/12 04:01:30;;;;;;;13.75;11.45;;;;;;;7.35;100.00;101324.75;5263767;28;20021;-79
2022/03/12 04:04:01;;;;;;;15.55;10.98;;;;;;;7.42;100.00;101327.81;5282836;28;20043;-79
2022/03/12 04:06:33;;;;;;;15.25;10.60;;;;;;;7.28;100.00;101327.94;5264697;28;20029;-79
2022/03/12 04:09:04;;;;;;;14.18;10.35;;;;;;;7.24;100.00;101332.63;5281545;28;20028;-79
2022/03/12 04:11:35;;;;;;;11.57;9.77;;;;;;;7.22;100.00;101337.16;5282599;28;20057;-79
2022/03/12 04:14:07;;;;;;;13.27;9.65;;;;;;;7.21;100.00;101343.44;5282192;28;20152;-79
2022/03/12 04:16:43;;;;;;;14.98;10.63;;;;;;;7.18;100.00;101344.50;5282649;28;20370;-78
2022/03/12 04:19:15;;;;;;;11.98;9.20;;;;;;;7.05;100.00;101343.69;5262443;28;20025;-79
2022/03/12 04:21:46;;;;;;;12.63;8.90;;;;;;;7.12;100.00;101350.25;5263746;28;20029;-79
2022/03/12 04:24:22;;;;;;;13.32;9.20;;;;;;;7.05;100.00;101356.06;5283587;28;20097;-79
2022/03/12 04:26:54;;;;;;;10.32;8.57;;;;;;;6.97;100.00;101335.41;5281726;28;20037;-79
2022/03/12 04:29:25;;;;;;;10.65;8.05;;;;;;;7.02;100.00;101349.19;5281542;28;20017;-79
2022/03/12 04:31:56;;;;;;;10.32;8.30;;;;;;;6.91;100.00;101346.44;5281122;28;20033;-79
2022/03/12 04:34:27;;;;;;;9.98;8.32;;;;;;;6.83;100.00;101354.91;5279044;28;20094;-79
2022/03/12 04:36:59;;;;;;;9.90;8.18;;;;;;;6.73;100.00;101344.13;5279265;28;20049;-79
2022/03/12 04:39:30;;;;;;;10.90;8.45;;;;;;;6.77;100.00;101348.25;5279810;28;20473;-79
2022/03/12 04:42:03;;;;;;;9.90;8.15;;;;;;;6.69;100.00;101337.31;5282268;28;20032;-79
2022/03/12 04:44:34;;;;;;;10.20;8.30;;;;;;;6.75;100.00;101358.09;5281200;28;20032;-79
2022/03/12 04:47:10;;;;;;;9.52;7.65;;;;;;;6.74;100.00;101356.41;5279845;28;20385;-79
2022/03/12 04:49:41;;;;;;;10.33;8.13;;;;;;;6.76;100.00;101345.69;5262991;28;20041;-79
2022/03/12 04:52:13;;;;;;;11.25;8.23;;;;;;;6.72;100.00;101355.66;5281394;28;20068;-78
2022/03/12 04:54:45;;;;;;;10.85;8.27;;;;;;;6.75;100.00;101352.81;5282558;28;20539;-79
2022/03/12 04:57:17;;;;;;;9.63;8.02;;;;;;;6.76;100.00;101364.25;5278464;28;20037;-78
2022/03/12 04:59:48;;;;;;;9.35;8.35;;;;;;;6.74;100.00;101358.22;5279688;28;20025;-78
2022/03/12 05:02:20;;;;;;;11.45;8.90;;;;;;;6.73;100.00;101364.47;5277973;28;20049;-79
2022/03/12 05:04:51;;;;;;;8.43;7.53;;;;;;;6.76;100.00;101369.56;5281367;28;20064;-79
2022/03/12 05:07:23;;;;;;;10.63;8.68;;;;;;;6.76;100.00;101373.03;5282396;28;20025;-79
2022/03/12 05:09:55;;;;;;;8.75;7.78;;;;;;;6.77;100.00;101369.44;5282589;28;20021;-79
2022/03/12 05:12:27;;;;;;;10.43;7.82;;;;;;;6.75;100.00;101375.81;5279236;28;20047;-79
2022/03/12 05:14:58;;;;;;;10.20;7.30;;;;;;;6.66;100.00;101358.72;5263394;28;20111;-79
2022/03/12 05:17:31;;;;;;;9.38;7.28;;;;;;;6.71;100.00;101371.66;5281033;28;20464;-79
2022/03/12 05:20:02;;;;;;;9.75;7.47;;;;;;;6.70;100.00;101378.78;5280013;28;20351;-79
2022/03/12 05:22:34;;;;;;;8.65;7.47;;;;;;;6.64;100.00;101387.13;5281550;28;20029;-79
2022/03/12 05:25:06;;;;;;;7.43;6.63;;;;;;;6.52;100.00;101375.59;5281030;28;20071;-79
2022/03/12 05:27:37;;;;;;;8.63;7.05;;;;;;;6.63;100.00;101388.09;5275497;28;20041;-79
2022/03/12 05:30:10;;;;;;;9.43;7.38;;;;;;;6.51;100.00;101392.41;5262625;28;20032;-78
2022/03/12 05:32:41;;;;;;;10.27;7.43;;;;;;;6.54;100.00;101389.56;5277096;28;20029;-79
2022/03/12 05:35:12;;;;;;;8.48;6.95;;;;;;;6.52;100.00;101396.78;5280941;28;20044;-78
2022/03/12 05:37:45;;;;;;;9.77;7.95;;;;;;;6.48;100.00;101394.44;5280865;28;20049;-79
2022/03/12 05:40:23;;;;;;;10.57;7.93;;;;;;;6.49;100.00;101412.88;5281124;28;20378;-79
2022/03/12 05:42:55;;;;;;;9.25;7.97;;;;;;;6.36;100.00;101394.28;5260291;28;20488;-79
2022/03/12 05:45:26;;;;;;;11.98;8.30;;;;;;;6.38;100.00;101410.94;5280375;28;20473;-79
2022/03/12 05:47:58;;;;;;;11.95;8.70;;;;;;;6.34;100.00;101414.72;5276737;28;20027;-79
2022/03/12 05:50:29;;;;;;;10.90;8.75;;;;;;;6.32;100.00;101415.78;5256999;28;20422;-79
2022/03/12 05:53:01;;;;;;;11.35;8.85;;;;;;;6.28;100.00;101411.66;5260742;28;20027;-78
2022/03/12 05:55:39;;;;;;;11.27;8.25;;;;;;;6.34;100.00;101413.88;5260744;28;20083;-79
2022/03/12 05:58:15;;;;;;;11.50;8.13;;;;;;;6.32;100.00;101416.63;5277953;28;20037;-79
2022/03/12 06:00:48;;;;;;;15.05;9.57;;;;;;;6.31;100.00;101419.38;5277663;28;20122;-79
2022/03/12 06:03:19;;;;;;;11.07;9.07;;;;;;;6.31;100.00;101424.69;5280110;28;20036;-79
2022/03/12 06:05:56;;;;;;;9.98;8.63;;;;;;;6.39;100.00;101419.75;5262887;28;20029;-79
2022/03/12 06:08:28;;;;;;;;;;;;;;;6.32;100.00;101421.94;5280351;28;20060;-79
2022/03/12 06:11:00;;;;;;;11.98;8.98;;;;;;;6.42;100.00;101417.72;5261089;28;19955;-79
2022/03/12 06:13:32;;;;;;;10.27;8.13;;;;;;;6.47;100.00;101422.75;5262573;28;20079;-79
2022/03/12 06:16:04;;;;;;;10.75;9.07;;;;;;;6.53;100.00;101426.78;5280662;28;20033;-79
2022/03/12 06:18:37;;;;;;;10.90;8.70;;;;;;;6.47;100.00;101427.16;5280240;28;20099;-79
2022/03/12 06:21:09;;;;;;;9.18;8.13;;;;;;;6.54;100.00;101429.34;5278099;28;20013;-79
2022/03/12 06:23:40;;;;;;;11.10;8.43;;;;;;;6.56;100.00;101437.19;5291099;28;20037;-80
2022/03/12 06:26:14;;;;;;;11.07;8.70;;;;;;;6.58;100.00;101435.28;5290937;28;20021;-79
2022/03/12 06:28:45;;;;;;;9.77;8.63;;;;;;;6.64;100.00;101434.84;5269902;28;20021;-79
2022/03/12 06:31:18;;;;;;;10.82;8.70;;;;;;;6.69;100.00;101440.69;5286537;28;20017;-79
2022/03/12 06:33:50;;;;;;;9.23;8.23;;;;;;;6.75;100.00;101442.09;5291541;28;20036;-79
2022/03/12 06:36:22;;;;;;;10.60;8.73;;;;;;;6.76;100.00;101434.03;5291106;28;20045;-78
2022/03/12 06:38:53;;;;;;;10.27;8.82;;;;;;;6.90;100.00;101445.53;5284663;28;20033;-79
2022/03/12 06:41:25;;;;;;;10.55;8.63;;;;;;;6.98;100.00;101440.56;5280046;28;20020;-79
2022/03/12 06:43:56;;;;;;;10.27;8.93;;;;;;;7.09;100.00;101443.31;5286171;28;20037;-79
2022/03/12 06:46:28;;;;;;;10.93;8.25;;;;;;;7.19;100.00;101454.16;5282503;28;20025;-79
2022/03/12 06:48:59;;;;;;;9.15;7.90;;;;;;;7.31;100.00;101458.59;5280461;28;20055;-79
2022/03/12 06:51:32;;;;;;;9.77;8.20;;;;;;;7.41;100.00;101468.59;5276992;28;36004;-79
2022/03/12 06:54:04;;;;;;;12.18;8.15;;;;;;;7.52;100.00;101458.91;5279713;28;20040;-79
2022/03/12 06:56:39;;;;;;;9.32;7.78;;;;;;;7.64;100.00;101456.34;5279684;28;20037;-79
2022/03/12 06:59:11;;;;;;;11.40;8.25;;;;;;;7.78;100.00;101461.53;5280020;28;20650;-79
2022/03/12 07:01:42;;;;;;;8.68;7.78;;;;;;;7.89;100.00;101456.31;5276948;28;20025;-79
2022/03/12 07:04:14;;;;;;;8.73;7.80;;;;;;;8.01;100.00;101473.19;5279696;28;20056;-79
2022/03/12 07:06:45;;;;;;;8.88;7.18;;;;;;;8.13;100.00;101468.78;5280544;28;20354;-79
2022/03/12 07:09:17;;;;;;;9.15;7.60;;;;;;;8.26;100.00;101469.59;5280281;28;20021;-79
2022/03/12 07:11:50;;;;;;;9.63;7.43;;;;;;;8.31;100.00;101467.44;5280133;28;20102;-79
2022/03/12 07:14:21;;;;;;;9.77;7.50;;;;;;;8.51;100.00;101471.31;5279835;28;20369;-79
2022/03/12 07:16:54;;;;;;;8.93;7.28;;;;;;;8.52;100.00;101464.19;5279590;28;20044;-79
2022/03/12 07:19:25;;;;;;;11.05;7.45;;;;;;;8.72;100.00;101473.34;5279331;28;20017;-79
2022/03/12 07:21:57;;;;;;;9.27;7.07;;;;;;;8.88;100.00;101473.88;5259545;28;20425;-79
2022/03/12 07:24:28;;;;;;;8.95;7.75;;;;;;;9.09;100.00;101474.06;5280376;28;20075;-79
2022/03/12 07:27:00;;;;;;;7.55;6.60;;;;;;;9.22;100.00;101466.00;5261429;28;20031;-79
2022/03/12 07:29:32;;;;;;;8.45;6.97;;;;;;;9.45;100.00;101484.66;5260213;28;20110;-79
2022/03/12 07:32:03;;;;;;;7.10;6.30;;;;;;;9.72;100.00;101480.78;5277563;28;20029;-80
2022/03/12 07:34:35;;;;;;;9.05;7.03;;;;;;;10.10;100.00;101488.41;5280397;28;20025;-79
2022/03/12 07:37:09;;;;;;;8.10;7.15;;;;;;;10.69;100.00;101494.31;5279808;28;20056;-79
2022/03/12 07:39:41;;;;;;;9.30;7.30;;;;;;;10.98;100.00;101502.56;5277503;28;20029;-78
2022/03/12 07:42:13;;;;;;;8.02;6.82;;;;;;;11.24;100.00;101503.03;5279237;28;20033;-79
2022/03/12 07:44:45;;;;;;;7.53;6.65;;;;;;;11.76;100.00;101507.53;5279574;28;20025;-79
2022/03/12 07:47:16;;;;;;;9.05;6.30;;;;;;;12.26;100.00;101508.44;5279782;28;20052;-79
2022/03/12 07:49:48;;;;;;;7.80;6.75;;;;;;;12.74;100.00;101505.97;5281197;28;28838;-80
2022/03/12 07:52:19;;;;;;;8.43;6.10;;;;;;;13.02;100.00;101513.13;5282519;28;20029;-80
2022/03/12 07:54:51;;;;;;;7.05;6.35;;;;;;;13.29;100.00;101508.03;5265557;28;20108;-79
2022/03/12 07:57:26;;;;;;;9.93;6.90;;;;;;;13.17;100.00;101507.38;5282612;28;20103;-80
2022/03/12 07:59:58;;;;;;;6.75;5.93;;;;;;;13.56;100.00;101509.97;5283369;28;20087;-80
2022/03/12 08:02:30;;;;;;;7.10;6.40;;;;;;;13.43;100.00;101507.63;5265033;28;20469;-79
2022/03/12 08:05:02;;;;;;;7.93;5.10;;;;;;;13.91;100.00;101517.31;5264258;28;20029;-79
2022/03/12 08:07:33;;;;;;;6.68;5.82;;;;;;;13.68;100.00;101516.84;5278209;28;20036;-79
2022/03/12 08:10:07;;;;;;;6.47;5.85;;;;;;;13.52;100.00;101520.16;5257063;28;20021;-79
2022/03/12 08:12:38;;;;;;;9.25;5.72;;;;;;;13.89;100.00;101532.72;5264852;28;20068;-79
2022/03/12 08:15:12;;;;;;;9.32;5.80;;;;;;;13.63;100.00;101537.88;5272627;28;20044;-79
2022/03/12 08:17:45;;;;;;;6.30;5.70;;;;;;;13.96;100.00;101530.31;5271767;28;20114;-79
2022/03/12 08:20:19;;;;;;;7.05;6.15;;;;;;;14.22;100.00;101524.22;5283783;28;20025;-79
2022/03/12 08:22:50;;;;;;;6.32;5.72;;;;;;;14.40;100.00;101535.03;5279905;28;20025;-80
2022/03/12 08:25:21;;;;;;;7.50;5.68;;;;;;;14.69;100.00;101540.22;5282872;28;20040;-79
2022/03/12 08:27:53;;;;;;;11.05;5.97;;;;;;;15.14;100.00;101544.66;5282623;28;20116;-80
2022/03/12 08:30:24;;;;;;;6.90;5.68;;;;;;;15.51;100.00;101538.22;5282826;28;20087;-80
2022/03/12 08:32:55;;;;;;;8.23;6.30;;;;;;;14.96;100.00;101560.78;5282655;28;20444;-80
2022/03/12 08:35:27;;;;;;;7.20;5.70;;;;;;;15.71;100.00;101555.00;5282390;28;20029;-80
2022/03/12 08:37:58;;;;;;;7.18;5.63;;;;;;;16.53;100.00;101554.50;5282588;28;22251;-80
2022/03/12 08:40:30;;;;;;;7.13;5.35;;;;;;;17.07;96.21;101559.53;5282059;28;20032;-80
2022/03/12 08:43:01;;;;;;;8.13;5.10;;;;;;;17.40;87.60;101565.75;5263276;28;20509;-80
2022/03/12 08:45:32;;;;;;;6.85;5.28;;;;;;;16.39;92.25;101567.63;5281346;28;20044;-80
2022/03/12 08:48:04;;;;;;;6.60;5.32;;;;;;;17.26;96.11;101561.03;5282471;28;20028;-80
2022/03/12 08:50:35;;;;;;;9.75;5.80;;;;;;;16.54;95.76;101561.59;5282760;28;20104;-80
2022/03/12 08:53:07;;;;;;;7.93;5.18;;;;;;;16.38;96.68;101565.94;5283620;28;20032;-80
2022/03/12 08:55:40;;;;;;;6.45;4.13;;;;;;;15.22;100.00;101554.66;5263413;28;20017;-80
2022/03/12 08:58:11;;;;;;;9.80;4.05;;;;;;;15.41;100.00;101573.28;5244290;28;20052;-80
2022/03/12 09:00:43;;;;;;;5.70;3.65;;;;;;;14.45;100.00;101573.81;5262675;28;20022;-80
2022/03/12 09:03:14;;;;;;;8.02;4.10;;;;;;;13.87;100.00;101574.94;5262039;28;20099;-80
2022/03/12 09:05:47;;;;;;;6.88;4.10;;;;;;;14.00;100.00;101572.75;5283640;28;20036;-80
2022/03/12 09:08:18;;;;;;;8.15;4.07;;;;;;;14.76;100.00;101570.81;5283987;28;20334;-80
2022/03/12 09:10:50;;;;;;;5.32;4.03;;;;;;;14.94;100.00;101577.06;5282627;28;20021;-80
2022/03/12 09:13:22;;;;;;;5.00;3.85;;;;;;;15.03;100.00;101583.34;5279401;28;20083;-80
2022/03/12 09:15:54;;;;;;;4.45;3.40;;;;;;;14.55;100.00;101582.66;5265008;28;20354;-80
2022/03/12 09:18:25;;;;;;;10.80;4.07;;;;;;;14.59;100.00;101580.56;5284056;28;20029;-80
2022/03/12 09:20:57;;;;;;;6.85;3.78;;;;;;;14.40;100.00;101576.13;5264871;28;20032;-80
2022/03/12 09:23:28;;;;;;;6.10;3.45;;;;;;;14.45;100.00;101570.31;5283929;28;20478;-80
2022/03/12 09:25:59;;;;;;;8.02;4.00;;;;;;;14.43;100.00;101575.81;5264610;28;20095;-78
2022/03/12 09:28:31;;;;;;;5.28;3.22;;;;;;;14.24;100.00;101586.66;5281897;28;20021;-79
2022/03/12 09:31:04;;;;;;;5.20;3.55;;;;;;;14.28;100.00;101567.41;5261586;28;20033;-79
2022/03/12 09:33:36;;;;;;;8.60;3.80;;;;;;;14.97;100.00;101575.06;5281654;28;20024;-79
2022/03/12 09:36:09;;;;;;;10.25;3.55;;;;;;;14.86;100.00;101594.94;5262419;28;20049;-79
2022/03/12 09:38:40;;;;;;;5.40;2.92;;;;;;;15.03;95.50;101594.09;5281937;28;20100;-79
2022/03/12 09:41:12;;;;;;;6.28;3.20;;;;;;;14.68;99.45;101592.25;5277239;28;20079;-79
2022/03/12 09:43:43;;;;;;;5.38;2.55;;;;;;;14.72;96.53;101570.28;5263060;28;20405;-79
2022/03/12 09:46:14;;;;;;;7.00;2.58;;;;;;;15.10;93.33;101588.97;5282151;28;20017;-79
2022/03/12 09:48:46;;;;;;;6.68;2.10;;;;;;;14.52;96.03;101585.66;5282012;28;20789;-79
2022/03/12 09:51:17;;;;;;;4.97;2.42;;;;;;;14.30;97.49;101584.19;5280232;28;20465;-79
2022/03/12 09:53:48;;;;;;;9.95;2.75;;;;;;;14.42;98.02;101581.34;5282142;28;20079;-79
2022/03/12 09:56:20;;;;;;;7.68;2.72;;;;;;;14.38;100.00;101584.31;5281083;28;20035;-79
2022/03/12 09:58:51;;;;;;;8.35;2.78;;;;;;;14.14;100.00;101584.84;5261945;28;20021;-78
2022/03/12 10:01:24;;;;;;;5.60;2.70;;;;;;;14.17;100.00;101605.19;5280851;28;20092;-78
2022/03/12 10:03:55;;;;;;;7.97;3.17;;;;;;;14.46;100.00;101588.94;5282491;28;20126;-78
2022/03/12 10:06:30;;;;;;;8.98;2.90;;;;;;;15.00;97.78;101593.56;5278990;28;20032;-79
2022/03/12 10:09:03;;;;;;;7.80;2.72;;;;;;;15.12;92.04;101600.41;5280949;28;20171;-79
2022/03/12 10:11:35;;;;;;;7.65;2.60;;;;;;;15.53;89.70;101599.88;5257676;28;20025;-78
2022/03/12 10:14:06;;;;;;;6.05;2.53;;;;;;;16.01;84.09;101607.47;5280846;28;20398;-79
2022/03/12 10:16:37;;;;;;;12.07;2.88;;;;;;;16.19;80.91;101603.88;5261245;28;20025;-79
2022/03/12 10:19:09;;;;;;;6.13;2.85;;;;;;;14.97;85.53;101607.28;5278066;28;20041;-79
2022/03/12 10:21:45;;;;;;;6.78;2.78;;;;;;;14.83;91.08;101595.22;5281276;28;20079;-79
2022/03/12 10:24:16;;;;;;;8.05;3.00;;;;;;;14.62;94.42;101619.66;5281367;28;20032;-79
2022/03/12 10:26:48;;;;;;;9.57;2.90;;;;;;;14.74;90.35;101594.31;5280811;28;20025;-79
2022/03/12 10:29:19;;;;;;;9.68;2.33;;;;;;;14.85;90.91;101606.66;5281277;28;20040;-79
2022/03/12 10:31:50;;;;;;;5.78;2.20;;;;;;;14.99;89.84;101598.09;5280834;28;20032;-79
2022/03/12 10:34:24;;;;;;;4.80;2.13;;;;;;;15.40;84.83;101586.88;5259587;28;20044;-79
2022/03/12 10:36:59;;;;;;;7.22;2.20;;;;;;;16.18;78.57;101591.41;5280968;28;20037;-79
2022/03/12 10:39:36;;;;;;;5.93;2.45;;;;;;;16.93;73.79;101596.88;5279056;28;20033;-79
2022/03/12 10:42:08;;;;;;;6.85;2.42;;;;;;;17.60;65.92;101597.75;5261093;28;20029;-79
2022/03/12 10:44:42;;;;;;;4.28;2.20;;;;;;;18.03;62.62;101615.41;5281061;28;20031;-79
2022/03/12 10:47:16;;;;;;;6.03;2.17;;;;;;;18.71;59.61;101605.84;5280516;28;20083;-79
2022/03/12 10:50:00;;;;;;;4.55;2.28;;;;;;;19.32;56.88;101605.13;5278524;28;20033;-79
2022/03/12 10:52:32;;;;;;;5.82;2.03;;;;;;;20.59;51.09;101599.69;5278368;28;20025;-80
2022/03/12 10:55:11;;;;;;;9.32;2.35;;;;;;;21.48;49.30;101600.44;5278004;28;20025;-80
2022/03/12 10:57:58;;;;;;;4.43;2.17;;;;;;;21.65;47.08;101599.13;5277295;28;20025;-80
2022/03/12 11:00:33;;;;;;;8.18;2.33;;;;;;;21.86;44.24;101590.06;5264029;28;20025;-80
2022/03/12 11:03:08;;;;;;;6.03;2.47;;;;;;;21.32;43.38;101598.81;5281817;28;20112;-80
2022/03/12 11:05:42;;;;;;;5.60;2.05;;;;;;;21.61;43.30;101597.00;5282380;28;20071;-81
2022/03/12 11:08:20;;;;;;;5.38;2.10;;;;;;;21.05;44.68;101601.25;5282578;28;20112;-80
2022/03/12 11:11:12;;;;;;;7.60;2.60;;;;;;;21.77;44.32;101595.84;5245496;28;20025;-80
2022/03/12 11:13:47;;;;;;;3.60;1.83;;;;;;;21.55;42.30;101606.75;5270553;28;20489;-80
2022/03/12 11:16:21;;;;;;;4.80;1.73;;;;;;;21.64;42.70;101604.75;5258840;28;20044;-80
2022/03/12 11:18:53;;;;;;;5.47;2.20;;;;;;;20.83;42.98;101613.97;5261193;28;20477;-80
2022/03/12 11:21:51;;;;;;;5.03;2.20;;;;;;;21.39;42.32;101605.16;5256404;28;20050;-80
2022/03/12 11:24:25;;;;;;;5.20;1.58;;;;;;;21.70;41.73;101601.22;5281978;28;20307;-80
2022/03/12 11:26:59;;;;;;;5.30;1.70;;;;;;;22.29;41.01;101597.22;5278040;28;20043;-79
2022/03/12 11:29:31;;;;;;;5.95;2.10;;;;;;;21.46;41.37;101599.81;5276544;28;20492;-79
2022/03/12 11:32:05;;;;;;;5.93;1.90;;;;;;;22.10;40.04;101596.06;5268566;28;20115;-79
2022/03/12 11:34:39;;;;;;;3.03;1.60;;;;;;;22.90;38.39;101599.09;5277384;28;20029;-79
2022/03/12 11:37:14;;;;;;;6.22;2.00;;;;;;;22.04;38.22;101610.44;5278975;28;20045;-79
2022/03/12 11:39:55;;;;;;;6.15;2.03;;;;;;;20.93;40.93;101594.69;5276098;28;20509;-79
2022/03/12 11:42:32;;;;;;;5.97;1.85;;;;;;;21.51;40.39;101603.59;5277695;28;20064;-79
2022/03/12 11:45:09;;;;;;;4.13;1.70;;;;;;;22.15;39.66;101590.03;5275486;28;20106;-79
2022/03/12 11:47:43;;;;;;;3.30;1.48;;;;;;;21.89;38.15;101599.69;5257333;28;20056;-79